JST829 YBBN-YSSY
Flight info
| Callsign | JST829 |
|---|---|
| Flight time | N/A |
| Altitude | 38000 |
| Route | YBBN/19L 2944S15204E BOREE BORE4A/34L |
| Aircraft | A21N/M-SDE2E3FGHIRWXY/LB1 |
Departure
| Time | N/A |
|---|---|
| Airport | Brisbane International Airport (YBBN) |
Arrival
| Time | 2026-05-01 07:37 |
|---|---|
| Airport | Sydney Kingsford Smith International Airport (YSSY) |
| Time | Latitude | Longitude | Altitude | Speed | Heading |
|---|---|---|---|---|---|
| 2026-05-01 07:23 | -33.63890 | 151.12120 | 8725 ft | 290 kts | 169° |
| 2026-05-01 07:23 | -33.67909 | 151.12917 | 8418 ft | 291 kts | 169° |
| 2026-05-01 07:24 | -33.69905 | 151.13312 | 8245 ft | 291 kts | 169° |
| 2026-05-01 07:24 | -33.71898 | 151.13704 | 8074 ft | 290 kts | 169° |
| 2026-05-01 07:24 | -33.73886 | 151.14090 | 7901 ft | 289 kts | 169° |
| 2026-05-01 07:24 | -33.75867 | 151.14473 | 7727 ft | 288 kts | 169° |
| 2026-05-01 07:25 | -33.77841 | 151.14854 | 7558 ft | 287 kts | 169° |
| 2026-05-01 07:25 | -33.79811 | 151.15219 | 7388 ft | 286 kts | 172° |
| 2026-05-01 07:25 | -33.81799 | 151.15222 | 7218 ft | 286 kts | 185° |
| 2026-05-01 07:25 | -33.83750 | 151.14743 | 7048 ft | 286 kts | 193° |
| 2026-05-01 07:26 | -33.85683 | 151.14167 | 6876 ft | 286 kts | 193° |
| 2026-05-01 07:26 | -33.87614 | 151.13606 | 6704 ft | 285 kts | 192° |
| 2026-05-01 07:26 | -33.89533 | 151.13054 | 6534 ft | 283 kts | 192° |
| 2026-05-01 07:26 | -33.91455 | 151.12504 | 6359 ft | 283 kts | 192° |
| 2026-05-01 07:27 | -33.93367 | 151.11955 | 6195 ft | 283 kts | 192° |
| 2026-05-01 07:27 | -33.95277 | 151.11406 | 6032 ft | 282 kts | 192° |
| 2026-05-01 07:27 | -33.97185 | 151.10858 | 5856 ft | 282 kts | 192° |
| 2026-05-01 07:27 | -33.99083 | 151.10311 | 5662 ft | 280 kts | 192° |
| 2026-05-01 07:28 | -34.00984 | 151.09763 | 5464 ft | 280 kts | 192° |
| 2026-05-01 07:28 | -34.02874 | 151.09217 | 5264 ft | 279 kts | 193° |
| 2026-05-01 07:28 | -34.04760 | 151.08671 | 5065 ft | 278 kts | 193° |
| 2026-05-01 07:28 | -34.06641 | 151.08135 | 4865 ft | 277 kts | 190° |
| 2026-05-01 07:29 | -34.08552 | 151.07964 | 4656 ft | 276 kts | 175° |
| 2026-05-01 07:29 | -34.10437 | 151.08346 | 4464 ft | 275 kts | 165° |
| 2026-05-01 07:29 | -34.12295 | 151.08847 | 4261 ft | 273 kts | 166° |
| 2026-05-01 07:29 | -34.14149 | 151.09332 | 4066 ft | 272 kts | 166° |
| 2026-05-01 07:30 | -34.15998 | 151.09811 | 3867 ft | 272 kts | 166° |
| 2026-05-01 07:30 | -34.17846 | 151.10287 | 3668 ft | 271 kts | 166° |
| 2026-05-01 07:30 | -34.19687 | 151.10770 | 3471 ft | 270 kts | 163° |
| 2026-05-01 07:30 | -34.21322 | 151.11791 | 3316 ft | 264 kts | 134° |
| 2026-05-01 07:31 | -34.22324 | 151.13593 | 3239 ft | 258 kts | 105° |
| 2026-05-01 07:31 | -34.21549 | 151.19796 | 3031 ft | 250 kts | 67° |
| 2026-05-01 07:32 | -34.18971 | 151.22315 | 3002 ft | 251 kts | 14° |
| 2026-05-01 07:32 | -34.17281 | 151.22733 | 2998 ft | 242 kts | 11° |
| 2026-05-01 07:33 | -34.14140 | 151.22633 | 2994 ft | 212 kts | 353° |
| 2026-05-01 07:33 | -34.12752 | 151.22310 | 2994 ft | 195 kts | 351° |
| 2026-05-01 07:33 | -34.10131 | 151.21636 | 2787 ft | 195 kts | 351° |
| 2026-05-01 07:34 | -34.08809 | 151.21292 | 2523 ft | 192 kts | 351° |
| 2026-05-01 07:34 | -34.06318 | 151.20642 | 1995 ft | 176 kts | 351° |
| 2026-05-01 07:34 | -34.05142 | 151.20334 | 1755 ft | 170 kts | 351° |
| 2026-05-01 07:35 | -34.04007 | 151.20037 | 1527 ft | 164 kts | 352° |
| 2026-05-01 07:35 | -34.02934 | 151.19758 | 1322 ft | 151 kts | 352° |
| 2026-05-01 07:35 | -34.01958 | 151.19502 | 1133 ft | 136 kts | 352° |
| 2026-05-01 07:35 | -34.01073 | 151.19273 | 951 ft | 126 kts | 352° |
| 2026-05-01 07:36 | -34.00184 | 151.19044 | 792 ft | 129 kts | 351° |
| 2026-05-01 07:36 | -33.99316 | 151.18818 | 630 ft | 129 kts | 351° |
| 2026-05-01 07:36 | -33.98446 | 151.18590 | 446 ft | 128 kts | 352° |
| 2026-05-01 07:36 | -33.97566 | 151.18362 | 276 ft | 126 kts | 352° |
| 2026-05-01 07:37 | -33.95850 | 151.17916 | 30 ft | 115 kts | 350° |
| 2026-05-01 07:37 | -33.95245 | 151.17760 | 29 ft | 64 kts | 347° |
| 2026-05-01 07:37 | -33.94890 | 151.17666 | 29 ft | 43 kts | 351° |
| 2026-05-01 07:38 | -33.94600 | 151.17654 | 29 ft | 36 kts | 11° |
| 2026-05-01 07:38 | -33.94464 | 151.17704 | 30 ft | 17 kts | 17° |
| 2026-05-01 07:38 | -33.94232 | 151.17702 | 29 ft | 17 kts | 353° |
| 2026-05-01 07:39 | -33.94097 | 151.17670 | 29 ft | 23 kts | 347° |
| 2026-05-01 07:39 | -33.93931 | 151.17619 | 29 ft | 19 kts | 347° |
| 2026-05-01 07:39 | -33.93789 | 151.17767 | 30 ft | 13 kts | 15° |
| 2026-05-01 07:40 | -33.93687 | 151.17801 | 30 ft | 17 kts | 13° |
| 2026-05-01 07:40 | -33.93584 | 151.17827 | 30 ft | 16 kts | 12° |
| 2026-05-01 07:40 | -33.93529 | 151.17811 | 30 ft | 6 kts | 297° |
| 2026-05-01 07:40 | -33.93526 | 151.17783 | 30 ft | 0 kts | 282° |
| 2026-05-01 07:41 | -33.93525 | 151.17771 | 30 ft | 2 kts | 279° |
| 2026-05-01 07:41 | -33.93524 | 151.17765 | 30 ft | 0 kts | 278° |